sensor_id;sensor_type;location;lat;lon;timestamp;pressure;altitude;pressure_sealevel;temperature;humidity
84483;BME280;74703;51.284;22.590;2024-01-30T00:03:18;101436.97;;;-1.26;89.27
84483;BME280;74703;51.284;22.590;2024-01-30T00:08:18;101433.69;;;-1.22;88.99
84483;BME280;74703;51.284;22.590;2024-01-30T00:13:19;101441.41;;;-1.21;88.64
84483;BME280;74703;51.284;22.590;2024-01-30T00:18:20;101433.47;;;-1.30;88.67
84483;BME280;74703;51.284;22.590;2024-01-30T00:23:21;101438.75;;;-1.24;88.62
84483;BME280;74703;51.284;22.590;2024-01-30T00:28:22;101434.81;;;-1.14;88.01
84483;BME280;74703;51.284;22.590;2024-01-30T00:33:23;101422.16;;;-1.09;87.55
84483;BME280;74703;51.284;22.590;2024-01-30T00:38:23;101416.91;;;-1.14;86.76
84483;BME280;74703;51.284;22.590;2024-01-30T00:43:24;101415.91;;;-1.19;87.10
84483;BME280;74703;51.284;22.590;2024-01-30T00:48:25;101400.34;;;-1.27;86.97
84483;BME280;74703;51.284;22.590;2024-01-30T00:53:26;101391.94;;;-1.50;87.03
84483;BME280;74703;51.284;22.590;2024-01-30T00:58:26;101428.44;;;-1.27;87.12
84483;BME280;74703;51.284;22.590;2024-01-30T01:03:27;101410.84;;;-1.45;87.47
84483;BME280;74703;51.284;22.590;2024-01-30T01:08:28;101408.00;;;-1.54;87.29
84483;BME280;74703;51.284;22.590;2024-01-30T01:13:28;101414.59;;;-1.33;87.16
84483;BME280;74703;51.284;22.590;2024-01-30T01:18:29;101371.25;;;-1.57;86.96
84483;BME280;74703;51.284;22.590;2024-01-30T01:23:31;101396.19;;;-1.23;86.32
84483;BME280;74703;51.284;22.590;2024-01-30T01:28:33;101377.22;;;-1.31;85.72
84483;BME280;74703;51.284;22.590;2024-01-30T01:33:35;101378.53;;;-1.43;86.12
84483;BME280;74703;51.284;22.590;2024-01-30T01:38:37;101379.09;;;-1.26;85.81
84483;BME280;74703;51.284;22.590;2024-01-30T01:43:37;101386.78;;;-1.24;85.20
84483;BME280;74703;51.284;22.590;2024-01-30T01:48:41;101383.63;;;-1.17;85.09
84483;BME280;74703;51.284;22.590;2024-01-30T01:53:44;101379.94;;;-1.25;85.13
84483;BME280;74703;51.284;22.590;2024-01-30T01:58:46;101360.34;;;-1.26;85.18
84483;BME280;74703;51.284;22.590;2024-01-30T02:03:48;101363.03;;;-1.22;84.20
84483;BME280;74703;51.284;22.590;2024-01-30T02:08:48;101376.44;;;-1.29;84.28
84483;BME280;74703;51.284;22.590;2024-01-30T02:13:49;101378.44;;;-1.19;84.15
84483;BME280;74703;51.284;22.590;2024-01-30T02:18:51;101368.41;;;-1.41;84.24
84483;BME280;74703;51.284;22.590;2024-01-30T02:23:52;101357.69;;;-1.56;84.44
84483;BME280;74703;51.284;22.590;2024-01-30T02:28:56;101325.66;;;-1.74;84.37
84483;BME280;74703;51.284;22.590;2024-01-30T02:33:57;101365.34;;;-1.56;84.58
84483;BME280;74703;51.284;22.590;2024-01-30T02:38:58;101334.81;;;-1.80;84.61
84483;BME280;74703;51.284;22.590;2024-01-30T02:43:59;101338.50;;;-1.71;84.84
84483;BME280;74703;51.284;22.590;2024-01-30T02:49:02;101354.19;;;-1.60;84.75
84483;BME280;74703;51.284;22.590;2024-01-30T02:54:03;101336.63;;;-1.76;84.75
84483;BME280;74703;51.284;22.590;2024-01-30T02:59:04;101333.47;;;-1.69;84.89
84483;BME280;74703;51.284;22.590;2024-01-30T03:04:05;101354.28;;;-1.57;84.97
84483;BME280;74703;51.284;22.590;2024-01-30T03:09:06;101329.53;;;-1.59;84.65
84483;BME280;74703;51.284;22.590;2024-01-30T03:14:09;101325.94;;;-1.65;84.47
84483;BME280;74703;51.284;22.590;2024-01-30T03:19:12;101322.91;;;-1.53;84.17
84483;BME280;74703;51.284;22.590;2024-01-30T03:24:13;101320.41;;;-1.51;83.93
84483;BME280;74703;51.284;22.590;2024-01-30T03:29:13;101312.63;;;-1.56;83.58
84483;BME280;74703;51.284;22.590;2024-01-30T03:34:15;101324.03;;;-1.45;83.20
84483;BME280;74703;51.284;22.590;2024-01-30T03:39:16;101321.88;;;-1.31;83.05
84483;BME280;74703;51.284;22.590;2024-01-30T03:44:17;101317.41;;;-1.38;82.58
84483;BME280;74703;51.284;22.590;2024-01-30T03:49:17;101315.72;;;-1.38;82.62
84483;BME280;74703;51.284;22.590;2024-01-30T03:54:18;101338.22;;;-1.26;82.50
84483;BME280;74703;51.284;22.590;2024-01-30T03:59:19;101341.53;;;-1.30;82.75
84483;BME280;74703;51.284;22.590;2024-01-30T04:04:24;101334.84;;;-1.25;82.15
84483;BME280;74703;51.284;22.590;2024-01-30T04:09:24;101315.81;;;-1.34;82.06
84483;BME280;74703;51.284;22.590;2024-01-30T04:14:26;101326.31;;;-1.25;82.19
84483;BME280;74703;51.284;22.590;2024-01-30T04:19:27;101304.56;;;-1.41;81.96
84483;BME280;74703;51.284;22.590;2024-01-30T04:24:27;101338.22;;;-1.26;81.88
84483;BME280;74703;51.284;22.590;2024-01-30T04:29:28;101301.06;;;-1.45;81.72
84483;BME280;74703;51.284;22.590;2024-01-30T04:34:29;101324.41;;;-1.32;81.90
84483;BME280;74703;51.284;22.590;2024-01-30T04:39:29;101299.41;;;-1.43;81.59
84483;BME280;74703;51.284;22.590;2024-01-30T04:44:30;101318.97;;;-1.43;81.48
84483;BME280;74703;51.284;22.590;2024-01-30T04:49:31;101327.72;;;-1.35;81.93
84483;BME280;74703;51.284;22.590;2024-01-30T04:54:32;101321.47;;;-1.45;81.36
84483;BME280;74703;51.284;22.590;2024-01-30T04:59:33;101325.63;;;-1.48;81.70
84483;BME280;74703;51.284;22.590;2024-01-30T05:04:33;101292.00;;;-1.62;81.67
84483;BME280;74703;51.284;22.590;2024-01-30T05:09:35;101343.06;;;-1.35;81.16
84483;BME280;74703;51.284;22.590;2024-01-30T05:14:35;101340.03;;;-1.50;81.47
84483;BME280;74703;51.284;22.590;2024-01-30T05:19:36;101325.81;;;-1.69;81.49
84483;BME280;74703;51.284;22.590;2024-01-30T05:24:37;101322.34;;;-1.71;81.78
84483;BME280;74703;51.284;22.590;2024-01-30T05:29:37;101342.19;;;-1.63;81.89
84483;BME280;74703;51.284;22.590;2024-01-30T05:34:39;101298.34;;;-1.76;82.08
84483;BME280;74703;51.284;22.590;2024-01-30T05:39:40;101312.22;;;-1.68;81.30
84483;BME280;74703;51.284;22.590;2024-01-30T05:44:40;101329.44;;;-1.63;81.71
84483;BME280;74703;51.284;22.590;2024-01-30T05:49:41;101332.88;;;-1.61;81.53
84483;BME280;74703;51.284;22.590;2024-01-30T05:54:43;101330.09;;;-1.68;81.46
84483;BME280;74703;51.284;22.590;2024-01-30T05:59:44;101323.41;;;-1.65;81.52
84483;BME280;74703;51.284;22.590;2024-01-30T06:04:45;101326.19;;;-1.84;82.00
84483;BME280;74703;51.284;22.590;2024-01-30T06:09:45;101314.44;;;-1.79;81.93
84483;BME280;74703;51.284;22.590;2024-01-30T06:14:46;101333.59;;;-1.38;81.33
84483;BME280;74703;51.284;22.590;2024-01-30T06:19:47;101292.97;;;-1.58;81.05
84483;BME280;74703;51.284;22.590;2024-01-30T06:24:48;101328.56;;;-1.36;81.33
84483;BME280;74703;51.284;22.590;2024-01-30T06:29:48;101325.91;;;-1.39;81.18
84483;BME280;74703;51.284;22.590;2024-01-30T06:34:50;101327.94;;;-1.27;80.76
84483;BME280;74703;51.284;22.590;2024-01-30T06:39:50;101294.25;;;-1.44;80.74
84483;BME280;74703;51.284;22.590;2024-01-30T06:44:52;101329.78;;;-0.95;79.76
84483;BME280;74703;51.284;22.590;2024-01-30T06:49:53;101325.59;;;-0.93;79.74
84483;BME280;74703;51.284;22.590;2024-01-30T06:54:53;101324.22;;;-0.81;79.34
84483;BME280;74703;51.284;22.590;2024-01-30T06:59:55;101320.50;;;-0.61;78.76
84483;BME280;74703;51.284;22.590;2024-01-30T07:04:55;101309.66;;;-0.52;78.44
84483;BME280;74703;51.284;22.590;2024-01-30T07:09:56;101314.06;;;-0.15;76.93
84483;BME280;74703;51.284;22.590;2024-01-30T07:14:57;101324.72;;;0.02;77.11
84483;BME280;74703;51.284;22.590;2024-01-30T07:20:00;101319.13;;;0.17;76.22
84483;BME280;74703;51.284;22.590;2024-01-30T07:25:00;101310.00;;;0.28;75.95
84483;BME280;74703;51.284;22.590;2024-01-30T07:30:01;101297.28;;;0.31;75.60
84483;BME280;74703;51.284;22.590;2024-01-30T07:35:02;101282.06;;;0.37;75.18
84483;BME280;74703;51.284;22.590;2024-01-30T07:40:07;101279.66;;;0.45;74.35
84483;BME280;74703;51.284;22.590;2024-01-30T07:45:07;101320.66;;;0.84;74.58
84483;BME280;74703;51.284;22.590;2024-01-30T07:50:08;101295.88;;;0.82;74.12
84483;BME280;74703;51.284;22.590;2024-01-30T07:55:09;101304.56;;;0.90;73.14
84483;BME280;74703;51.284;22.590;2024-01-30T08:00:10;101299.88;;;1.10;73.23
84483;BME280;74703;51.284;22.590;2024-01-30T08:05:11;101277.03;;;1.22;72.80
84483;BME280;74703;51.284;22.590;2024-01-30T08:10:12;101284.31;;;1.46;71.91
84483;BME280;74703;51.284;22.590;2024-01-30T08:15:18;101293.00;;;1.53;71.77
84483;BME280;74703;51.284;22.590;2024-01-30T08:20:18;101276.06;;;1.61;71.04
84483;BME280;74703;51.284;22.590;2024-01-30T08:25:24;101302.31;;;1.96;70.61
84483;BME280;74703;51.284;22.590;2024-01-30T08:30:27;101291.44;;;2.11;69.84
84483;BME280;74703;51.284;22.590;2024-01-30T08:35:28;101284.63;;;2.15;69.67
84483;BME280;74703;51.284;22.590;2024-01-30T08:40:31;101300.47;;;2.39;69.14
84483;BME280;74703;51.284;22.590;2024-01-30T08:45:32;101307.59;;;2.60;68.99
84483;BME280;74703;51.284;22.590;2024-01-30T08:50:32;101271.66;;;2.62;68.03
84483;BME280;74703;51.284;22.590;2024-01-30T08:55:36;101301.22;;;2.94;67.38
84483;BME280;74703;51.284;22.590;2024-01-30T09:00:37;101292.13;;;3.21;66.53
84483;BME280;74703;51.284;22.590;2024-01-30T09:05:41;101231.84;;;2.99;66.48
84483;BME280;74703;51.284;22.590;2024-01-30T09:10:54;101255.38;;;3.36;64.77
84483;BME280;74703;51.284;22.590;2024-01-30T09:15:55;101276.22;;;3.57;64.61
84483;BME280;74703;51.284;22.590;2024-01-30T09:20:56;101242.81;;;3.63;64.47
84483;BME280;74703;51.284;22.590;2024-01-30T09:25:56;101252.31;;;3.71;63.49
84483;BME280;74703;51.284;22.590;2024-01-30T09:30:57;101253.34;;;3.88;63.47
84483;BME280;74703;51.284;22.590;2024-01-30T09:35:58;101263.75;;;4.03;63.11
84483;BME280;74703;51.284;22.590;2024-01-30T09:41:03;101248.28;;;4.00;62.97
84483;BME280;74703;51.284;22.590;2024-01-30T09:46:05;101244.09;;;4.13;62.10
84483;BME280;74703;51.284;22.590;2024-01-30T09:51:07;101246.75;;;4.24;62.12
84483;BME280;74703;51.284;22.590;2024-01-30T09:56:07;101217.53;;;4.25;61.77
84483;BME280;74703;51.284;22.590;2024-01-30T10:01:08;101231.31;;;4.31;61.01
84483;BME280;74703;51.284;22.590;2024-01-30T10:06:09;101239.16;;;4.45;61.23
84483;BME280;74703;51.284;22.590;2024-01-30T10:11:10;101230.50;;;4.37;60.46
84483;BME280;74703;51.284;22.590;2024-01-30T10:16:14;101213.41;;;4.51;60.33
84483;BME280;74703;51.284;22.590;2024-01-30T10:21:15;101215.19;;;4.68;59.09
84483;BME280;74703;51.284;22.590;2024-01-30T10:26:16;101187.66;;;4.59;60.29
84483;BME280;74703;51.284;22.590;2024-01-30T10:31:21;101207.50;;;4.80;59.25
84483;BME280;74703;51.284;22.590;2024-01-30T10:36:28;101190.28;;;4.67;58.76
84483;BME280;74703;51.284;22.590;2024-01-30T10:41:31;101203.25;;;4.96;59.32
84483;BME280;74703;51.284;22.590;2024-01-30T10:46:42;101181.75;;;4.92;58.56
84483;BME280;74703;51.284;22.590;2024-01-30T10:51:46;101193.00;;;5.17;57.90
84483;BME280;74703;51.284;22.590;2024-01-30T10:56:48;101168.94;;;5.15;58.11
84483;BME280;74703;51.284;22.590;2024-01-30T11:01:50;101176.69;;;5.37;58.72
84483;BME280;74703;51.284;22.590;2024-01-30T11:06:51;101174.09;;;5.41;58.85
84483;BME280;74703;51.284;22.590;2024-01-30T11:11:59;101156.91;;;5.40;57.64
84483;BME280;74703;51.284;22.590;2024-01-30T11:17:03;101164.66;;;5.48;58.06
84483;BME280;74703;51.284;22.590;2024-01-30T11:22:06;101125.94;;;5.37;57.96
84483;BME280;74703;51.284;22.590;2024-01-30T11:27:10;101170.69;;;5.70;56.58
84483;BME280;74703;51.284;22.590;2024-01-30T11:32:11;101153.47;;;5.77;56.14
84483;BME280;74703;51.284;22.590;2024-01-30T11:37:13;101133.66;;;5.71;57.17
84483;BME280;74703;51.284;22.590;2024-01-30T11:42:15;101156.91;;;5.88;57.14
84483;BME280;74703;51.284;22.590;2024-01-30T11:47:16;101141.44;;;5.94;56.29
84483;BME280;74703;51.284;22.590;2024-01-30T11:52:17;101125.91;;;5.99;57.29
84483;BME280;74703;51.284;22.590;2024-01-30T11:57:17;101113.84;;;5.93;56.25
84483;BME280;74703;51.284;22.590;2024-01-30T12:02:18;101124.13;;;6.22;56.22
84483;BME280;74703;51.284;22.590;2024-01-30T12:07:18;101129.31;;;6.21;55.98
84483;BME280;74703;51.284;22.590;2024-01-30T12:12:19;101100.91;;;6.08;55.54
84483;BME280;74703;51.284;22.590;2024-01-30T12:22:28;101113.84;;;6.05;54.84
84483;BME280;74703;51.284;22.590;2024-01-30T12:27:29;101112.94;;;6.08;55.32
84483;BME280;74703;51.284;22.590;2024-01-30T12:32:29;101091.47;;;5.93;54.82
84483;BME280;74703;51.284;22.590;2024-01-30T12:37:30;101091.47;;;6.03;54.64
84483;BME280;74703;51.284;22.590;2024-01-30T12:42:31;101107.00;;;5.93;55.14
84483;BME280;74703;51.284;22.590;2024-01-30T12:47:32;101082.88;;;5.79;55.58
84483;BME280;74703;51.284;22.590;2024-01-30T12:52:33;101074.25;;;5.77;55.13
84483;BME280;74703;51.284;22.590;2024-01-30T12:57:35;101088.88;;;5.83;55.20
84483;BME280;74703;51.284;22.590;2024-01-30T13:02:37;101082.88;;;5.73;55.90
84483;BME280;74703;51.284;22.590;2024-01-30T13:07:38;101086.31;;;5.73;55.79
84483;BME280;74703;51.284;22.590;2024-01-30T13:12:39;101087.19;;;5.69;56.62
84483;BME280;74703;51.284;22.590;2024-01-30T13:17:40;101083.75;;;5.75;55.78
84483;BME280;74703;51.284;22.590;2024-01-30T13:22:43;101087.16;;;5.82;55.26
84483;BME280;74703;51.284;22.590;2024-01-30T13:27:44;101067.41;;;5.61;56.68
84483;BME280;74703;51.284;22.590;2024-01-30T13:32:45;101080.31;;;5.64;56.55
84483;BME280;74703;51.284;22.590;2024-01-30T13:37:46;101059.69;;;5.51;57.37
84483;BME280;74703;51.284;22.590;2024-01-30T13:42:48;101072.53;;;5.65;56.20
84483;BME280;74703;51.284;22.590;2024-01-30T13:47:49;101065.66;;;5.60;56.48
84483;BME280;74703;51.284;22.590;2024-01-30T13:52:50;101076.88;;;5.63;56.84
84483;BME280;74703;51.284;22.590;2024-01-30T13:57:51;101069.16;;;5.48;56.69
84483;BME280;74703;51.284;22.590;2024-01-30T14:02:51;101053.66;;;5.48;57.12
84483;BME280;74703;51.284;22.590;2024-01-30T14:07:55;101057.09;;;5.25;58.31
84483;BME280;74703;51.284;22.590;2024-01-30T14:12:57;101062.25;;;5.22;59.08
84483;BME280;74703;51.284;22.590;2024-01-30T14:17:58;101066.56;;;5.13;59.50
84483;BME280;74703;51.284;22.590;2024-01-30T14:22:58;101057.09;;;4.95;59.48
84483;BME280;74703;51.284;22.590;2024-01-30T14:27:59;101033.88;;;4.73;59.63
84483;BME280;74703;51.284;22.590;2024-01-30T14:32:59;101057.06;;;4.73;60.31
84483;BME280;74703;51.284;22.590;2024-01-30T14:38:00;101056.19;;;4.64;60.31
84483;BME280;74703;51.284;22.590;2024-01-30T14:43:02;101046.72;;;4.49;60.91
84483;BME280;74703;51.284;22.590;2024-01-30T14:48:03;101042.34;;;4.31;61.81
84483;BME280;74703;51.284;22.590;2024-01-30T14:53:05;101055.22;;;4.32;60.93
84483;BME280;74703;51.284;22.590;2024-01-30T14:58:05;101042.22;;;3.97;61.97
84483;BME280;74703;51.284;22.590;2024-01-30T15:03:06;101017.19;;;3.67;62.54
84483;BME280;74703;51.284;22.590;2024-01-30T15:08:07;101043.72;;;3.63;62.88
84483;BME280;74703;51.284;22.590;2024-01-30T15:13:07;101040.19;;;3.44;63.24
84483;BME280;74703;51.284;22.590;2024-01-30T15:18:08;101067.63;;;3.40;63.74
84483;BME280;74703;51.284;22.590;2024-01-30T15:23:11;101038.25;;;3.12;63.69
84483;BME280;74703;51.284;22.590;2024-01-30T15:28:11;101045.03;;;3.04;64.33
84483;BME280;74703;51.284;22.590;2024-01-30T15:33:13;101050.09;;;2.96;64.68
84483;BME280;74703;51.284;22.590;2024-01-30T15:38:14;101034.50;;;2.78;64.88
84483;BME280;74703;51.284;22.590;2024-01-30T15:43:15;101031.94;;;2.77;65.03
84483;BME280;74703;51.284;22.590;2024-01-30T15:48:17;101055.03;;;2.75;65.08
84483;BME280;74703;51.284;22.590;2024-01-30T15:53:21;101039.44;;;2.57;65.87
84483;BME280;74703;51.284;22.590;2024-01-30T15:58:22;101046.25;;;2.51;65.80
84483;BME280;74703;51.284;22.590;2024-01-30T16:03:23;101039.28;;;2.40;65.82
84483;BME280;74703;51.284;22.590;2024-01-30T16:08:23;101034.97;;;2.37;65.60
84483;BME280;74703;51.284;22.590;2024-01-30T16:13:24;101027.03;;;2.17;66.08
84483;BME280;74703;51.284;22.590;2024-01-30T16:18:24;101033.97;;;2.24;66.49
84483;BME280;74703;51.284;22.590;2024-01-30T16:23:27;101039.03;;;2.18;66.71
84483;BME280;74703;51.284;22.590;2024-01-30T16:28:28;101044.19;;;2.18;66.81
84483;BME280;74703;51.284;22.590;2024-01-30T16:33:30;101033.72;;;2.04;66.25
84483;BME280;74703;51.284;22.590;2024-01-30T16:38:31;101021.81;;;2.11;66.35
84483;BME280;74703;51.284;22.590;2024-01-30T16:43:31;101014.13;;;2.10;65.61
84483;BME280;74703;51.284;22.590;2024-01-30T16:48:32;101028.00;;;2.27;65.57
84483;BME280;74703;51.284;22.590;2024-01-30T16:53:33;101039.22;;;2.34;65.24
84483;BME280;74703;51.284;22.590;2024-01-30T16:58:34;101009.91;;;2.16;64.75
84483;BME280;74703;51.284;22.590;2024-01-30T17:03:34;101034.00;;;2.29;65.21
84483;BME280;74703;51.284;22.590;2024-01-30T17:08:35;101003.13;;;2.21;65.42
84483;BME280;74703;51.284;22.590;2024-01-30T17:13:36;101015.25;;;2.35;65.07
84483;BME280;74703;51.284;22.590;2024-01-30T17:18:37;101022.03;;;2.29;65.18
84483;BME280;74703;51.284;22.590;2024-01-30T17:23:37;101004.69;;;2.12;65.04
84483;BME280;74703;51.284;22.590;2024-01-30T17:28:39;100988.28;;;1.97;65.74
84483;BME280;74703;51.284;22.590;2024-01-30T17:33:39;101027.69;;;2.02;65.70
84483;BME280;74703;51.284;22.590;2024-01-30T17:38:41;101025.16;;;2.04;66.29
84483;BME280;74703;51.284;22.590;2024-01-30T17:43:42;101012.94;;;1.84;65.98
84483;BME280;74703;51.284;22.590;2024-01-30T17:48:42;101020.03;;;2.05;66.13
84483;BME280;74703;51.284;22.590;2024-01-30T17:53:43;101007.78;;;1.84;66.39
84483;BME280;74703;51.284;22.590;2024-01-30T17:58:44;101009.53;;;1.87;66.05
84483;BME280;74703;51.284;22.590;2024-01-30T18:03:44;101024.09;;;1.87;66.30
84483;BME280;74703;51.284;22.590;2024-01-30T18:08:45;101017.84;;;1.69;66.65
84483;BME280;74703;51.284;22.590;2024-01-30T18:13:45;101015.25;;;1.65;67.20
84483;BME280;74703;51.284;22.590;2024-01-30T18:18:46;101020.44;;;1.69;67.01
84483;BME280;74703;51.284;22.590;2024-01-30T18:23:47;101013.38;;;1.53;67.40
84483;BME280;74703;51.284;22.590;2024-01-30T18:28:48;101010.75;;;1.50;67.63
84483;BME280;74703;51.284;22.590;2024-01-30T18:33:49;101024.44;;;1.50;67.58
84483;BME280;74703;51.284;22.590;2024-01-30T18:38:55;100998.63;;;1.36;68.12
84483;BME280;74703;51.284;22.590;2024-01-30T18:43:55;101002.91;;;1.39;68.31
84483;BME280;74703;51.284;22.590;2024-01-30T18:48:56;101013.19;;;1.41;68.03
84483;BME280;74703;51.284;22.590;2024-01-30T18:53:57;100995.16;;;1.34;68.19
84483;BME280;74703;51.284;22.590;2024-01-30T18:58:57;101007.22;;;1.40;68.72
84483;BME280;74703;51.284;22.590;2024-01-30T19:03:58;100994.31;;;1.34;68.19
84483;BME280;74703;51.284;22.590;2024-01-30T19:08:58;100969.25;;;1.16;68.84
84483;BME280;74703;51.284;22.590;2024-01-30T19:13:59;100998.56;;;1.35;68.82
84483;BME280;74703;51.284;22.590;2024-01-30T19:18:59;100983.97;;;1.29;68.77
84483;BME280;74703;51.284;22.590;2024-01-30T19:24:00;100995.06;;;1.28;68.85
84483;BME280;74703;51.284;22.590;2024-01-30T19:29:01;100988.31;;;1.33;68.95
84483;BME280;74703;51.284;22.590;2024-01-30T19:34:01;100974.34;;;1.13;69.36
84483;BME280;74703;51.284;22.590;2024-01-30T19:39:02;100980.28;;;1.10;69.32
84483;BME280;74703;51.284;22.590;2024-01-30T19:44:03;100981.13;;;1.11;69.15
84483;BME280;74703;51.284;22.590;2024-01-30T19:49:03;100984.53;;;1.11;69.26
84483;BME280;74703;51.284;22.590;2024-01-30T19:54:04;100981.06;;;1.06;69.49
84483;BME280;74703;51.284;22.590;2024-01-30T19:59:06;100958.81;;;1.04;69.10
84483;BME280;74703;51.284;22.590;2024-01-30T20:04:07;100981.88;;;1.05;69.70
84483;BME280;74703;51.284;22.590;2024-01-30T20:09:07;100980.22;;;1.07;69.86
84483;BME280;74703;51.284;22.590;2024-01-30T20:14:08;100972.22;;;0.87;70.48
84483;BME280;74703;51.284;22.590;2024-01-30T20:19:09;100965.38;;;0.85;70.01
84483;BME280;74703;51.284;22.590;2024-01-30T20:24:10;100959.31;;;0.81;70.32
84483;BME280;74703;51.284;22.590;2024-01-30T20:29:11;100961.00;;;0.81;70.39
84483;BME280;74703;51.284;22.590;2024-01-30T20:34:11;100947.09;;;0.65;70.84
84483;BME280;74703;51.284;22.590;2024-01-30T20:39:12;100959.19;;;0.74;70.73
84483;BME280;74703;51.284;22.590;2024-01-30T20:44:14;100946.94;;;0.56;71.35
84483;BME280;74703;51.284;22.590;2024-01-30T20:49:16;100964.91;;;0.59;71.70
84483;BME280;74703;51.284;22.590;2024-01-30T20:54:18;100962.22;;;0.51;71.78
84483;BME280;74703;51.284;22.590;2024-01-30T20:59:19;100938.25;;;0.48;71.37
84483;BME280;74703;51.284;22.590;2024-01-30T21:04:19;100941.50;;;0.37;71.53
84483;BME280;74703;51.284;22.590;2024-01-30T21:09:20;100953.56;;;0.43;71.80
84483;BME280;74703;51.284;22.590;2024-01-30T21:14:21;100930.34;;;0.34;72.10
84483;BME280;74703;51.284;22.590;2024-01-30T21:19:21;100944.81;;;0.32;72.30
84483;BME280;74703;51.284;22.590;2024-01-30T21:24:22;100952.56;;;0.36;72.78
84483;BME280;74703;51.284;22.590;2024-01-30T21:29:22;100936.06;;;0.20;72.73
84483;BME280;74703;51.284;22.590;2024-01-30T21:34:23;100949.03;;;0.28;72.56
84483;BME280;74703;51.284;22.590;2024-01-30T21:39:23;100927.13;;;-0.02;73.56
84483;BME280;74703;51.284;22.590;2024-01-30T21:44:24;100943.50;;;0.07;72.94
84483;BME280;74703;51.284;22.590;2024-01-30T21:49:24;100962.34;;;0.12;73.75
84483;BME280;74703;51.284;22.590;2024-01-30T21:54:26;100936.34;;;-0.10;73.84
84483;BME280;74703;51.284;22.590;2024-01-30T21:59:27;100943.97;;;-0.14;74.22
84483;BME280;74703;51.284;22.590;2024-01-30T22:04:27;100960.41;;;-0.02;74.27
84483;BME280;74703;51.284;22.590;2024-01-30T22:09:28;100941.53;;;-0.08;74.17
84483;BME280;74703;51.284;22.590;2024-01-30T22:14:29;100940.84;;;0.01;74.17
84483;BME280;74703;51.284;22.590;2024-01-30T22:19:29;100959.00;;;0.14;73.99
84483;BME280;74703;51.284;22.590;2024-01-30T22:24:30;100940.00;;;0.02;74.05
84483;BME280;74703;51.284;22.590;2024-01-30T22:29:31;100960.56;;;0.06;74.61
84483;BME280;74703;51.284;22.590;2024-01-30T22:34:31;100934.69;;;-0.08;74.72
84483;BME280;74703;51.284;22.590;2024-01-30T22:39:32;100940.06;;;0.05;74.24
84483;BME280;74703;51.284;22.590;2024-01-30T22:44:32;100948.75;;;0.14;74.35
84483;BME280;74703;51.284;22.590;2024-01-30T22:49:33;100928.09;;;0.04;74.44
84483;BME280;74703;51.284;22.590;2024-01-30T22:54:33;100930.63;;;0.02;74.25
84483;BME280;74703;51.284;22.590;2024-01-30T22:59:34;100930.72;;;0.07;74.43
84483;BME280;74703;51.284;22.590;2024-01-30T23:04:34;100931.47;;;0.03;74.52
84483;BME280;74703;51.284;22.590;2024-01-30T23:09:35;100930.50;;;-0.04;75.04
84483;BME280;74703;51.284;22.590;2024-01-30T23:14:36;100925.44;;;-0.03;74.90
84483;BME280;74703;51.284;22.590;2024-01-30T23:19:36;100935.03;;;0.09;74.60
84483;BME280;74703;51.284;22.590;2024-01-30T23:24:37;100895.59;;;-0.01;74.68
84483;BME280;74703;51.284;22.590;2024-01-30T23:29:38;100923.25;;;0.19;74.14
84483;BME280;74703;51.284;22.590;2024-01-30T23:34:40;100887.00;;;-0.04;74.66
84483;BME280;74703;51.284;22.590;2024-01-30T23:39:40;100905.06;;;0.04;75.08
84483;BME280;74703;51.284;22.590;2024-01-30T23:44:41;100920.59;;;0.13;74.94
84483;BME280;74703;51.284;22.590;2024-01-30T23:49:43;100924.81;;;0.11;74.87
84483;BME280;74703;51.284;22.590;2024-01-30T23:54:46;100853.41;;;-0.24;74.95
84483;BME280;74703;51.284;22.590;2024-01-30T23:59:47;100895.97;;;0.21;74.79
